Terminal Aerodrome Forecast
Issued by NWS

Home | Current Version | Previous Version | Text Only | Print | Product List | Glossary On
Versions: 1 2 3 4 5 6 7 8 9 10 11 12 13 14 15 16 17 18 19 20 21 22 23 24 25 26 27 28 29 30 31
532
FTUS42 KJAX 172129 AAA
TAFCRG
TAF AMD
KCRG 172129Z 1721/1818 26008KT P6SM BKN050
     FM172300 20004KT P6SM FEW250
     FM180700 23002KT 4SM BR BKN010
     FM181000 24003KT 2SM BR BKN008
     FM181400 26003KT 5SM BR BKN010
     FM181500 31005KT P6SM SCT015 BKN035=

USA.gov is the U.S. government's official web portal to all federal, state and local government web resources and services.